Time;durP1;ratioP1;P1;durP2;ratioP2;P2;SDS_P1;SDS_P2;PMS_P1;PMS_P2;Temp;Humidity;BMP_temperature;BMP_pressure;BME280_temperature;BME280_humidity;BME280_pressure;Samples;Min_cycle;Max_cycle;Signal;HPM_P1;HPM_P2
2022/04/09 00:00:21;;;;;;;;;;;24.20;36.50;;;;;;4945903;29;20444;-63
2022/04/09 00:02:48;;;;;;;;;;;24.20;36.50;;;;;;4946125;29;19941;-64
2022/04/09 00:05:15;;;;;;;;;;;24.20;36.50;;;;;;4946293;29;20020;-64
2022/04/09 00:07:42;;;;;;;;;;;24.20;36.50;;;;;;4946613;29;19977;-64
2022/04/09 00:10:10;;;;;;;;;;;24.10;36.50;;;;;;4946237;29;20246;-64
2022/04/09 00:12:38;;;;;;;;;;;24.20;36.50;;;;;;4946258;29;19957;-64
2022/04/09 00:15:05;;;;;;;;;;;24.20;36.50;;;;;;4941481;28;19930;-64
2022/04/09 00:17:37;;;;;;;;;;;24.10;36.50;;;;;;4945994;29;19930;-64
2022/04/09 00:20:04;;;;;;;;;;;24.10;36.50;;;;;;4946310;28;19931;-64
2022/04/09 00:22:31;;;;;;;;;;;24.20;36.50;;;;;;4945101;29;20287;-64
2022/04/09 00:24:58;;;;;;;;;;;24.10;36.50;;;;;;4945319;29;20068;-64
2022/04/09 00:27:25;;;;;;;;;;;24.10;36.50;;;;;;4945316;28;19938;-64
2022/04/09 00:29:55;;;;;;;;;;;24.10;36.50;;;;;;4944791;29;19982;-64
2022/04/09 00:32:22;;;;;;;;;;;24.10;36.50;;;;;;4945538;29;19984;-64
2022/04/09 00:34:49;;;;;;;;;;;24.10;36.50;;;;;;4945556;29;19926;-64
2022/04/09 00:37:16;;;;;;;;;;;24.10;36.50;;;;;;4945488;29;20345;-64
2022/04/09 00:39:43;;;;;;;;;;;24.10;36.50;;;;;;4945572;29;19938;-64
2022/04/09 00:42:14;;;;;;;;;;;24.10;36.50;;;;;;4945732;29;19984;-64
2022/04/09 00:44:41;;;;;;;;;;;24.10;36.50;;;;;;4945191;28;19976;-64
2022/04/09 00:47:09;;;;;;;;;;;24.10;36.50;;;;;;4940650;28;20392;-64
2022/04/09 00:49:37;;;;;;;;;;;24.10;36.50;;;;;;4945866;29;19958;-64
2022/04/09 00:52:06;;;;;;;;;;;24.10;36.50;;;;;;4945215;29;20638;-64
2022/04/09 00:54:34;;;;;;;;;;;24.10;36.50;;;;;;4945062;29;19982;-64
2022/04/09 00:57:03;;;;;;;;;;;24.10;36.50;;;;;;4944670;29;19934;-65
2022/04/09 00:59:30;;;;;;;;;;;24.10;36.50;;;;;;4944905;28;19930;-64
2022/04/09 01:01:57;;;;;;;;;;;24.10;36.50;;;;;;4945221;29;19935;-64
2022/04/09 01:04:24;;;;;;;;;;;24.10;36.50;;;;;;4945111;29;20551;-64
2022/04/09 01:06:52;;;;;;;;;;;24.10;36.50;;;;;;4944315;29;20390;-64
2022/04/09 01:09:19;;;;;;;;;;;24.10;36.50;;;;;;4944918;28;19984;-64
2022/04/09 01:11:46;;;;;;;;;;;24.10;36.50;;;;;;4944827;28;19972;-64
2022/04/09 01:14:13;;;;;;;;;;;24.10;36.50;;;;;;4945159;29;19927;-64
2022/04/09 01:16:40;;;;;;;;;;;24.10;36.50;;;;;;4944438;28;19974;-63
2022/04/09 01:19:07;;;;;;;;;;;24.10;36.60;;;;;;4940767;28;19956;-64
2022/04/09 01:21:34;;;;;;;;;;;24.10;36.60;;;;;;4944913;28;20021;-64
2022/04/09 01:24:04;;;;;;;;;;;24.10;36.60;;;;;;4945148;28;19972;-62
2022/04/09 01:26:31;;;;;;;;;;;24.10;36.60;;;;;;4945493;29;19980;-64
2022/04/09 01:28:58;;;;;;;;;;;24.10;36.60;;;;;;4944291;28;19933;-64
2022/04/09 01:31:25;;;;;;;;;;;24.10;36.60;;;;;;4943820;28;19969;-64
2022/04/09 01:33:52;;;;;;;;;;;24.10;36.60;;;;;;4942383;28;19976;-64
2022/04/09 01:36:19;;;;;;;;;;;24.10;37.20;;;;;;4927819;29;19984;-64
2022/04/09 01:38:46;;;;;;;;;;;24.10;36.60;;;;;;4944827;29;20474;-64
2022/04/09 01:41:13;;;;;;;;;;;24.10;36.60;;;;;;4944532;29;20068;-64
2022/04/09 01:43:41;;;;;;;;;;;24.00;36.60;;;;;;4944432;28;19927;-64
2022/04/09 01:46:08;;;;;;;;;;;24.00;36.60;;;;;;4944218;29;20404;-64
2022/04/09 01:48:35;;;;;;;;;;;24.00;36.60;;;;;;4944757;29;20353;-64
2022/04/09 01:51:02;;;;;;;;;;;24.00;36.60;;;;;;4940547;29;19977;-64
2022/04/09 01:53:29;;;;;;;;;;;24.00;36.60;;;;;;4944697;29;20017;-64
2022/04/09 01:55:56;;;;;;;;;;;24.00;36.60;;;;;;4944563;29;19973;-64
2022/04/09 01:58:23;;;;;;;;;;;24.00;36.60;;;;;;4943959;29;20665;-64
2022/04/09 02:00:51;;;;;;;;;;;24.00;36.60;;;;;;4944340;29;20023;-64
2022/04/09 02:03:18;;;;;;;;;;;24.00;36.60;;;;;;4944508;29;19976;-64
2022/04/09 02:05:46;;;;;;;;;;;24.00;36.60;;;;;;4944630;29;20353;-64
2022/04/09 02:08:13;;;;;;;;;;;24.10;36.70;;;;;;4944766;29;19981;-62
2022/04/09 02:10:40;;;;;;;;;;;24.00;36.70;;;;;;4944428;29;19962;-64
2022/04/09 02:13:11;;;;;;;;;;;24.00;36.70;;;;;;4944692;29;20418;-63
2022/04/09 02:15:38;;;;;;;;;;;24.00;36.60;;;;;;4944131;28;19939;-64
2022/04/09 02:18:05;;;;;;;;;;;24.00;36.60;;;;;;4946209;28;19937;-64
2022/04/09 02:20:33;;;;;;;;;;;24.00;36.60;;;;;;4947650;28;20409;-64
2022/04/09 02:23:00;;;;;;;;;;;24.00;36.60;;;;;;4943233;29;20365;-63
2022/04/09 02:25:27;;;;;;;;;;;24.00;36.60;;;;;;4947977;29;20191;-64
2022/04/09 02:27:54;;;;;;;;;;;24.10;36.70;;;;;;4947807;28;20335;-64
2022/04/09 02:30:21;;;;;;;;;;;24.00;36.60;;;;;;4947742;28;20360;-64
2022/04/09 02:32:49;;;;;;;;;;;24.00;36.60;;;;;;4947188;29;20466;-64
2022/04/09 02:35:17;;;;;;;;;;;24.00;36.60;;;;;;4947263;29;19927;-64
2022/04/09 02:37:44;;;;;;;;;;;24.00;36.60;;;;;;4947649;29;19991;-64
2022/04/09 02:40:11;;;;;;;;;;;24.00;36.60;;;;;;4929854;29;19927;-64
2022/04/09 02:42:39;;;;;;;;;;;24.00;36.60;;;;;;4947693;29;20317;-64
2022/04/09 02:45:07;;;;;;;;;;;24.00;36.60;;;;;;4947060;28;19927;-64
2022/04/09 02:47:34;;;;;;;;;;;24.00;36.60;;;;;;4946778;29;19930;-64
2022/04/09 02:50:02;;;;;;;;;;;24.00;36.60;;;;;;4947352;29;19927;-64
2022/04/09 02:52:34;;;;;;;;;;;24.00;36.60;;;;;;4947266;28;19984;-64
2022/04/09 02:55:01;;;;;;;;;;;24.00;36.60;;;;;;4942695;28;19980;-64
2022/04/09 02:57:28;;;;;;;;;;;24.00;36.60;;;;;;4946950;29;20045;-64
2022/04/09 02:59:55;;;;;;;;;;;24.00;37.20;;;;;;4946275;29;19935;-64
2022/04/09 03:02:22;;;;;;;;;;;24.00;36.70;;;;;;4947076;29;19973;-64
2022/04/09 03:04:51;;;;;;;;;;;24.00;36.60;;;;;;4946489;29;19949;-63
2022/04/09 03:07:18;;;;;;;;;;;24.00;36.70;;;;;;4947334;29;19926;-63
2022/04/09 03:09:45;;;;;;;;;;;24.00;36.70;;;;;;4946905;29;19926;-64
2022/04/09 03:12:12;;;;;;;;;;;24.00;36.80;;;;;;4947064;29;19969;-64
2022/04/09 03:14:39;;;;;;;;;;;24.00;36.70;;;;;;4946956;29;19926;-64
2022/04/09 03:17:06;;;;;;;;;;;24.00;36.60;;;;;;4946565;29;19926;-64
2022/04/09 03:19:33;;;;;;;;;;;24.00;36.60;;;;;;4947168;29;19969;-64
2022/04/09 03:22:00;;;;;;;;;;;24.00;36.70;;;;;;4946936;29;19926;-64
2022/04/09 03:24:27;;;;;;;;;;;24.00;36.70;;;;;;4946784;29;20224;-64
2022/04/09 03:26:54;;;;;;;;;;;24.00;36.70;;;;;;4925055;29;20478;-64
2022/04/09 03:29:21;;;;;;;;;;;24.00;36.70;;;;;;4945337;28;19969;-63
2022/04/09 03:31:48;;;;;;;;;;;24.00;36.70;;;;;;4947023;29;19958;-64
2022/04/09 03:34:16;;;;;;;;;;;24.00;36.70;;;;;;4946012;29;19926;-64
2022/04/09 03:36:43;;;;;;;;;;;24.00;36.70;;;;;;4946130;29;19988;-64
2022/04/09 03:39:10;;;;;;;;;;;24.00;36.80;;;;;;4947032;28;20370;-64
2022/04/09 03:41:37;;;;;;;;;;;24.00;36.80;;;;;;4946400;29;19962;-64
2022/04/09 03:44:04;;;;;;;;;;;24.00;36.80;;;;;;4946286;29;20021;-64
2022/04/09 03:46:31;;;;;;;;;;;24.00;36.80;;;;;;4946073;29;20560;-64
2022/04/09 03:48:58;;;;;;;;;;;24.00;36.80;;;;;;4946280;29;19989;-64
2022/04/09 03:51:25;;;;;;;;;;;23.90;36.70;;;;;;4945879;29;19972;-64
2022/04/09 03:53:52;;;;;;;;;;;24.00;36.80;;;;;;4946429;28;19926;-64
2022/04/09 03:56:20;;;;;;;;;;;23.90;36.70;;;;;;4944828;29;20448;-64
2022/04/09 03:58:49;;;;;;;;;;;23.90;36.70;;;;;;4942792;29;19927;-64
2022/04/09 04:01:16;;;;;;;;;;;24.00;36.80;;;;;;4945711;29;19926;-64
2022/04/09 04:03:44;;;;;;;;;;;24.00;36.70;;;;;;4946106;29;19937;-64
2022/04/09 04:06:11;;;;;;;;;;;24.00;36.70;;;;;;4946138;29;19927;-64
2022/04/09 04:08:38;;;;;;;;;;;24.00;36.80;;;;;;4946758;28;20297;-64
2022/04/09 04:11:06;;;;;;;;;;;24.00;36.70;;;;;;4945396;29;19935;-64
2022/04/09 04:13:36;;;;;;;;;;;24.00;36.70;;;;;;4946156;29;20370;-64
2022/04/09 04:16:04;;;;;;;;;;;24.00;36.70;;;;;;4945135;29;19931;-64
2022/04/09 04:18:31;;;;;;;;;;;24.00;36.70;;;;;;4928777;29;20417;-65
2022/04/09 04:20:58;;;;;;;;;;;24.00;36.70;;;;;;4946001;28;19980;-64
2022/04/09 04:23:25;;;;;;;;;;;23.90;36.60;;;;;;4945409;28;20447;-64
2022/04/09 04:25:52;;;;;;;;;;;24.00;36.70;;;;;;4945890;29;20311;-64
2022/04/09 04:28:19;;;;;;;;;;;23.90;36.60;;;;;;4943237;29;20017;-64
2022/04/09 04:30:46;;;;;;;;;;;24.00;36.70;;;;;;4944502;29;19957;-64
2022/04/09 04:33:13;;;;;;;;;;;24.00;36.70;;;;;;4945824;29;20608;-64
2022/04/09 04:35:40;;;;;;;;;;;23.90;36.60;;;;;;4945318;29;19992;-64
2022/04/09 04:38:07;;;;;;;;;;;24.00;36.70;;;;;;4946186;29;19989;-64
2022/04/09 04:40:34;;;;;;;;;;;24.00;36.60;;;;;;4944865;28;19976;-64
2022/04/09 04:43:01;;;;;;;;;;;24.00;36.70;;;;;;4946010;29;19927;-64
2022/04/09 04:45:29;;;;;;;;;;;24.00;36.60;;;;;;4945656;29;19934;-64
2022/04/09 04:47:57;;;;;;;;;;;24.00;36.60;;;;;;4944705;28;19945;-64
2022/04/09 04:50:24;;;;;;;;;;;24.00;36.60;;;;;;4945430;29;20297;-64
2022/04/09 04:52:51;;;;;;;;;;;24.00;36.50;;;;;;4945561;29;20395;-64
2022/04/09 04:55:18;;;;;;;;;;;24.10;36.60;;;;;;4946004;29;19989;-64
2022/04/09 04:57:51;;;;;;;;;;;24.10;36.50;;;;;;4944921;29;19972;-63
2022/04/09 05:00:22;;;;;;;;;;;24.10;36.50;;;;;;4940518;28;19926;-64
2022/04/09 05:02:51;;;;;;;;;;;24.10;36.50;;;;;;4945515;29;19973;-64
2022/04/09 05:05:18;;;;;;;;;;;24.10;36.50;;;;;;4927686;28;20326;-64
2022/04/09 05:07:46;;;;;;;;;;;24.10;36.40;;;;;;4928367;29;19926;-65
2022/04/09 05:10:14;;;;;;;;;;;24.10;36.30;;;;;;4945057;28;20062;-64
2022/04/09 05:12:41;;;;;;;;;;;24.10;36.30;;;;;;4945075;29;19926;-65
2022/04/09 05:15:09;;;;;;;;;;;24.10;36.30;;;;;;4945061;29;19965;-64
2022/04/09 05:17:37;;;;;;;;;;;24.10;36.20;;;;;;4944156;28;20033;-64
2022/04/09 05:20:05;;;;;;;;;;;24.10;36.20;;;;;;4945198;28;19934;-64
2022/04/09 05:22:32;;;;;;;;;;;24.10;36.20;;;;;;4944732;29;19927;-64
2022/04/09 05:24:59;;;;;;;;;;;24.10;36.10;;;;;;4945251;28;19952;-64
2022/04/09 05:27:27;;;;;;;;;;;24.20;36.20;;;;;;4927988;29;19927;-64
2022/04/09 05:29:54;;;;;;;;;;;24.20;36.10;;;;;;4944850;28;19976;-64
2022/04/09 05:32:21;;;;;;;;;;;24.20;36.00;;;;;;4940857;28;19927;-64
2022/04/09 05:34:49;;;;;;;;;;;24.30;36.00;;;;;;4944464;29;19926;-64
2022/04/09 05:37:16;;;;;;;;;;;24.30;36.00;;;;;;4944248;29;19927;-64
2022/04/09 05:39:43;;;;;;;;;;;24.30;35.90;;;;;;4944669;28;19985;-64
2022/04/09 05:42:10;;;;;;;;;;;24.30;35.80;;;;;;4944742;29;20343;-64
2022/04/09 05:44:38;;;;;;;;;;;24.40;35.80;;;;;;4944846;28;19988;-64
2022/04/09 05:47:05;;;;;;;;;;;24.40;35.70;;;;;;4944070;29;20372;-64
2022/04/09 05:49:32;;;;;;;;;;;24.40;35.70;;;;;;4945046;29;20264;-64
2022/04/09 05:51:59;;;;;;;;;;;24.50;35.70;;;;;;4945040;28;19930;-65
2022/04/09 05:54:26;;;;;;;;;;;24.50;35.60;;;;;;4947829;29;19980;-64
2022/04/09 05:56:53;;;;;;;;;;;24.50;35.50;;;;;;4946616;28;19989;-65
2022/04/09 05:59:20;;;;;;;;;;;24.50;35.50;;;;;;4943754;28;20421;-64
2022/04/09 06:01:47;;;;;;;;;;;24.60;35.50;;;;;;4956652;28;20119;-66
2022/04/09 06:04:19;;;;;;;;;;;24.60;35.40;;;;;;4963052;28;20209;-64
2022/04/09 06:06:47;;;;;;;;;;;24.70;35.40;;;;;;4966815;28;19960;-64
2022/04/09 06:09:14;;;;;;;;;;;24.70;35.30;;;;;;4967190;28;19934;-64
2022/04/09 06:11:42;;;;;;;;;;;24.70;35.30;;;;;;4966915;28;19930;-64
2022/04/09 06:14:09;;;;;;;;;;;24.70;35.30;;;;;;4967766;28;19926;-62
2022/04/09 06:16:38;;;;;;;;;;;24.70;35.20;;;;;;4966851;28;19926;-63
2022/04/09 06:19:05;;;;;;;;;;;24.80;35.20;;;;;;4966816;28;19937;-64
2022/04/09 06:21:33;;;;;;;;;;;24.80;35.20;;;;;;4967247;28;19926;-63
2022/04/09 06:24:00;;;;;;;;;;;24.80;35.20;;;;;;4966688;28;20071;-63
2022/04/09 06:26:30;;;;;;;;;;;24.90;35.10;;;;;;4967161;28;19927;-63
2022/04/09 06:28:57;;;;;;;;;;;24.90;35.10;;;;;;4966905;28;19930;-63
2022/04/09 06:31:24;;;;;;;;;;;24.90;35.00;;;;;;4967404;28;19926;-64
2022/04/09 06:33:51;;;;;;;;;;;24.90;35.00;;;;;;4965500;28;20278;-63
2022/04/09 06:36:18;;;;;;;;;;;25.00;34.90;;;;;;4963797;28;20149;-63
2022/04/09 06:38:45;;;;;;;;;;;25.00;34.80;;;;;;4966603;28;20025;-63
2022/04/09 06:41:12;;;;;;;;;;;25.00;34.80;;;;;;4966862;28;19963;-63
2022/04/09 06:43:39;;;;;;;;;;;25.10;34.90;;;;;;4966640;28;19981;-63
2022/04/09 06:46:06;;;;;;;;;;;25.10;34.70;;;;;;4966463;28;19972;-63
2022/04/09 06:48:33;;;;;;;;;;;25.10;34.70;;;;;;4964864;28;20020;-63
2022/04/09 06:51:00;;;;;;;;;;;25.10;34.60;;;;;;4952019;28;19927;-63
2022/04/09 06:53:27;;;;;;;;;;;25.10;34.50;;;;;;4953225;28;19933;-66
2022/04/09 06:55:54;;;;;;;;;;;25.10;34.50;;;;;;4964403;28;19975;-66
2022/04/09 06:58:21;;;;;;;;;;;25.20;34.50;;;;;;4965812;28;20381;-67
2022/04/09 07:00:48;;;;;;;;;;;25.20;34.50;;;;;;4966335;28;19926;-67
2022/04/09 07:03:15;;;;;;;;;;;25.30;34.50;;;;;;4966708;28;19930;-63
2022/04/09 07:05:42;;;;;;;;;;;25.30;34.50;;;;;;4963224;28;20369;-63
2022/04/09 07:08:09;;;;;;;;;;;25.20;34.40;;;;;;4964375;28;19926;-63
2022/04/09 07:10:39;;;;;;;;;;;25.30;34.50;;;;;;4965796;28;19926;-63
2022/04/09 07:13:06;;;;;;;;;;;25.30;34.40;;;;;;4966130;28;19926;-63
2022/04/09 07:15:34;;;;;;;;;;;25.30;34.40;;;;;;4966266;28;20025;-63
2022/04/09 07:18:01;;;;;;;;;;;25.30;34.30;;;;;;4965660;28;20330;-64
2022/04/09 07:20:29;;;;;;;;;;;25.30;34.30;;;;;;4966282;28;20393;-63
2022/04/09 07:22:56;;;;;;;;;;;25.30;34.30;;;;;;4965465;28;19926;-62
2022/04/09 07:25:23;;;;;;;;;;;25.30;34.30;;;;;;4966122;28;20332;-62
2022/04/09 07:27:50;;;;;;;;;;;25.30;34.30;;;;;;4966162;28;20410;-62
2022/04/09 07:30:18;;;;;;;;;;;25.30;34.30;;;;;;4965749;28;20017;-63
2022/04/09 07:32:45;;;;;;;;;;;25.30;34.20;;;;;;4966232;28;20442;-62
2022/04/09 07:35:13;;;;;;;;;;;25.30;34.20;;;;;;4965657;28;19930;-62
2022/04/09 07:37:41;;;;;;;;;;;25.30;34.20;;;;;;4960979;28;20039;-62
2022/04/09 07:40:12;;;;;;;;;;;25.30;34.10;;;;;;4965562;28;19957;-62
2022/04/09 07:42:40;;;;;;;;;;;25.30;34.10;;;;;;4966045;28;19930;-63
2022/04/09 07:45:07;;;;;;;;;;;25.30;34.10;;;;;;4966318;28;19980;-62
2022/04/09 07:47:34;;;;;;;;;;;25.30;34.70;;;;;;4965178;28;20116;-62
2022/04/09 07:50:03;;;;;;;;;;;25.30;34.10;;;;;;4964347;28;20025;-62
2022/04/09 07:52:30;;;;;;;;;;;25.30;34.10;;;;;;4951658;28;19926;-62
2022/04/09 07:54:57;;;;;;;;;;;25.40;34.20;;;;;;4946591;29;19970;-62
2022/04/09 07:57:25;;;;;;;;;;;25.40;34.20;;;;;;4946543;29;19930;-62
2022/04/09 07:59:56;;;;;;;;;;;25.40;34.10;;;;;;4945415;29;20022;-62
2022/04/09 08:02:23;;;;;;;;;;;25.40;34.00;;;;;;4946377;28;19969;-63
2022/04/09 08:04:50;;;;;;;;;;;25.40;33.90;;;;;;4946239;29;20004;-63
2022/04/09 08:07:17;;;;;;;;;;;25.40;33.90;;;;;;4945908;29;20029;-63
2022/04/09 08:09:44;;;;;;;;;;;25.40;33.90;;;;;;4941577;29;20324;-63
2022/04/09 08:12:15;;;;;;;;;;;25.40;33.90;;;;;;4945410;29;20459;-62
2022/04/09 08:14:42;;;;;;;;;;;25.40;33.90;;;;;;4945644;28;20014;-62
2022/04/09 08:17:09;;;;;;;;;;;25.40;33.90;;;;;;4945642;29;20444;-64
2022/04/09 08:19:36;;;;;;;;;;;25.40;33.90;;;;;;4945872;29;20388;-62
2022/04/09 08:22:04;;;;;;;;;;;25.40;33.90;;;;;;4946593;29;19956;-62
2022/04/09 08:24:34;;;;;;;;;;;25.40;33.90;;;;;;4944587;29;20218;-62
2022/04/09 08:27:01;;;;;;;;;;;25.40;33.90;;;;;;4945552;29;20006;-62
2022/04/09 08:29:28;;;;;;;;;;;25.40;33.90;;;;;;4946198;29;20363;-62
2022/04/09 08:31:54;;;;;;;;;;;25.40;33.90;;;;;;4945962;29;19970;-62
2022/04/09 08:34:22;;;;;;;;;;;25.50;33.90;;;;;;4945431;29;19927;-63
2022/04/09 08:36:49;;;;;;;;;;;25.50;33.90;;;;;;4944836;29;20379;-63
2022/04/09 08:39:16;;;;;;;;;;;25.50;33.80;;;;;;4945485;29;20348;-63
2022/04/09 08:41:44;;;;;;;;;;;25.50;33.80;;;;;;4941072;29;19966;-62
2022/04/09 08:44:12;;;;;;;;;;;25.50;33.90;;;;;;4945876;28;19977;-62
2022/04/09 08:46:40;;;;;;;;;;;25.40;33.90;;;;;;4945635;29;19926;-62
2022/04/09 08:49:08;;;;;;;;;;;25.40;34.00;;;;;;4945435;29;19926;-62
2022/04/09 08:51:35;;;;;;;;;;;25.40;34.00;;;;;;4945804;29;20179;-62
2022/04/09 08:54:03;;;;;;;;;;;25.40;34.10;;;;;;4944735;29;19984;-62
2022/04/09 08:56:37;;;;;;;;;;;25.40;34.10;;;;;;4945419;29;19981;-63
2022/04/09 08:59:04;;;;;;;;;;;25.30;34.20;;;;;;4944761;29;20182;-63
2022/04/09 09:01:32;;;;;;;;;;;25.30;34.20;;;;;;4944586;29;19934;-64
2022/04/09 09:03:59;;;;;;;;;;;25.30;34.10;;;;;;4945480;29;19930;-63
2022/04/09 09:06:35;;;;;;;;;;;25.30;34.30;;;;;;4944773;29;20109;-63
2022/04/09 09:09:03;;;;;;;;;;;25.20;34.40;;;;;;4945265;29;20466;-63
2022/04/09 09:11:43;;;;;;;;;;;25.20;34.50;;;;;;4945114;29;19927;-64
2022/04/09 09:14:10;;;;;;;;;;;25.20;34.60;;;;;;4923779;29;19927;-64
2022/04/09 09:16:37;;;;;;;;;;;25.20;34.60;;;;;;4945004;29;19980;-64
2022/04/09 09:19:05;;;;;;;;;;;25.10;34.50;;;;;;4945132;29;19988;-64
2022/04/09 09:21:32;;;;;;;;;;;25.20;34.50;;;;;;4928174;29;19965;-63
2022/04/09 09:24:12;;;;;;;;;;;25.10;34.40;;;;;;4944568;29;20370;-63
2022/04/09 09:26:39;;;;;;;;;;;25.10;34.50;;;;;;4944191;29;20177;-63
2022/04/09 09:29:08;;;;;;;;;;;25.10;34.60;;;;;;4945037;29;20468;-64
2022/04/09 09:31:43;;;;;;;;;;;25.10;34.60;;;;;;4944668;29;20174;-64
2022/04/09 09:34:11;;;;;;;;;;;25.00;34.60;;;;;;4945023;29;20366;-64
2022/04/09 09:36:40;;;;;;;;;;;25.00;34.70;;;;;;4944232;29;19982;-64
2022/04/09 09:39:08;;;;;;;;;;;24.90;34.70;;;;;;4945117;29;20610;-64
2022/04/09 09:41:35;;;;;;;;;;;24.90;34.70;;;;;;4944081;29;19934;-64
2022/04/09 09:44:06;;;;;;;;;;;24.90;34.70;;;;;;4943819;29;20080;-64
2022/04/09 09:46:33;;;;;;;;;;;24.90;34.70;;;;;;4942170;29;19973;-64
2022/04/09 09:49:00;;;;;;;;;;;24.80;34.50;;;;;;4944464;29;20290;-64
2022/04/09 09:51:27;;;;;;;;;;;24.80;34.50;;;;;;4944760;29;19981;-65
2022/04/09 09:54:08;;;;;;;;;;;24.80;34.40;;;;;;4944996;29;20022;-64
2022/04/09 09:56:36;;;;;;;;;;;24.70;34.30;;;;;;4944360;29;19972;-64
2022/04/09 09:59:07;;;;;;;;;;;24.70;34.30;;;;;;4944575;29;19930;-64
2022/04/09 10:01:35;;;;;;;;;;;24.70;34.40;;;;;;4944148;29;20000;-64
2022/04/09 10:04:03;;;;;;;;;;;24.70;34.40;;;;;;4944822;29;19973;-64
2022/04/09 10:06:31;;;;;;;;;;;24.60;34.30;;;;;;4944571;29;20108;-64
2022/04/09 10:08:59;;;;;;;;;;;24.60;34.30;;;;;;4944457;29;19988;-64
2022/04/09 10:11:26;;;;;;;;;;;24.60;34.30;;;;;;4944125;29;20354;-64
2022/04/09 10:13:55;;;;;;;;;;;24.50;34.20;;;;;;4944177;29;19926;-64
2022/04/09 10:16:23;;;;;;;;;;;24.60;34.20;;;;;;4943224;29;19926;-64
2022/04/09 10:18:50;;;;;;;;;;;24.50;34.20;;;;;;4942033;29;19973;-64
2022/04/09 10:21:17;;;;;;;;;;;24.50;34.20;;;;;;4944738;28;19926;-64
2022/04/09 10:23:46;;;;;;;;;;;24.50;34.20;;;;;;4944128;29;20390;-64
2022/04/09 10:26:13;;;;;;;;;;;24.40;34.10;;;;;;4944390;29;19978;-64
2022/04/09 10:28:40;;;;;;;;;;;24.50;34.10;;;;;;4944221;29;20017;-64
2022/04/09 10:31:27;;;;;;;;;;;24.40;34.10;;;;;;4944378;29;19931;-64
2022/04/09 10:33:55;;;;;;;;;;;24.40;34.10;;;;;;4944263;28;20380;-64
2022/04/09 10:36:42;;;;;;;;;;;24.30;34.00;;;;;;4943695;29;20247;-64
2022/04/09 10:39:22;;;;;;;;;;;24.40;34.00;;;;;;4946198;28;19934;-64
2022/04/09 10:41:50;;;;;;;;;;;24.40;34.00;;;;;;4946628;29;19972;-64
2022/04/09 10:44:37;;;;;;;;;;;24.30;34.00;;;;;;4957932;28;19962;-64
2022/04/09 10:47:04;;;;;;;;;;;24.30;34.00;;;;;;4966701;28;20032;-64
2022/04/09 10:49:32;;;;;;;;;;;24.30;34.00;;;;;;4959642;28;19979;-64
2022/04/09 10:52:05;;;;;;;;;;;24.30;34.00;;;;;;4957036;28;19987;-64
2022/04/09 10:54:33;;;;;;;;;;;24.30;34.00;;;;;;4949356;28;19980;-64
2022/04/09 10:57:07;;;;;;;;;;;24.30;34.00;;;;;;4951679;28;20052;-64
2022/04/09 10:59:34;;;;;;;;;;;24.20;33.90;;;;;;4946726;28;19934;-64
2022/04/09 11:02:04;;;;;;;;;;;24.20;33.90;;;;;;4947609;29;20174;-64
2022/04/09 11:04:35;;;;;;;;;;;24.20;33.90;;;;;;4947290;29;19932;-64
2022/04/09 11:07:06;;;;;;;;;;;24.10;33.90;;;;;;4946433;29;19934;-64
2022/04/09 11:09:51;;;;;;;;;;;24.10;33.90;;;;;;4948215;28;20418;-64
2022/04/09 11:12:21;;;;;;;;;;;24.10;33.90;;;;;;4960685;28;19927;-64
2022/04/09 11:14:49;;;;;;;;;;;24.10;33.90;;;;;;4946985;28;19927;-63
2022/04/09 11:17:24;;;;;;;;;;;24.10;33.90;;;;;;4951115;28;19927;-63
2022/04/09 11:19:51;;;;;;;;;;;24.10;33.90;;;;;;4953256;28;19961;-64
2022/04/09 11:22:19;;;;;;;;;;;24.10;33.90;;;;;;4946551;28;19961;-64
2022/04/09 11:24:46;;;;;;;;;;;24.10;33.90;;;;;;4965418;28;20360;-64
2022/04/09 11:27:13;;;;;;;;;;;24.10;33.90;;;;;;4966420;28;19934;-64
2022/04/09 11:29:40;;;;;;;;;;;24.10;33.80;;;;;;4947755;28;19980;-65
2022/04/09 11:32:17;;;;;;;;;;;24.10;33.80;;;;;;4946554;29;20021;-64
2022/04/09 11:34:55;;;;;;;;;;;24.10;33.80;;;;;;4946310;29;20370;-64
2022/04/09 11:37:23;;;;;;;;;;;24.10;33.80;;;;;;4955719;28;19930;-64
2022/04/09 11:39:50;;;;;;;;;;;24.10;33.80;;;;;;4960941;28;20017;-64
2022/04/09 11:42:18;;;;;;;;;;;24.00;33.70;;;;;;4955624;28;20424;-63
2022/04/09 11:44:49;;;;;;;;;;;24.00;33.70;;;;;;4954373;28;19934;-64
2022/04/09 11:47:23;;;;;;;;;;;24.00;33.80;;;;;;4946495;29;20021;-63
2022/04/09 11:49:52;;;;;;;;;;;24.00;33.70;;;;;;4945691;29;20004;-64
2022/04/09 11:52:29;;;;;;;;;;;24.00;33.70;;;;;;4949277;28;20483;-63
2022/04/09 11:54:59;;;;;;;;;;;24.00;33.60;;;;;;4963555;28;19978;-63
2022/04/09 11:57:26;;;;;;;;;;;24.00;33.60;;;;;;4965653;28;19985;-63
2022/04/09 11:59:54;;;;;;;;;;;24.00;33.60;;;;;;4964416;28;19972;-64
2022/04/09 12:02:25;;;;;;;;;;;24.00;33.60;;;;;;4965599;28;19996;-64
2022/04/09 12:04:53;;;;;;;;;;;24.00;33.60;;;;;;4962115;28;20294;-63
2022/04/09 12:07:20;;;;;;;;;;;23.90;33.60;;;;;;4945931;28;19980;-63
2022/04/09 12:09:47;;;;;;;;;;;23.90;33.60;;;;;;4946677;29;19938;-64
2022/04/09 12:12:16;;;;;;;;;;;23.90;33.60;;;;;;4948820;28;20486;-63
2022/04/09 12:14:54;;;;;;;;;;;23.90;33.60;;;;;;4945799;29;20418;-63
2022/04/09 12:17:23;;;;;;;;;;;23.90;33.50;;;;;;4946171;29;20426;-63
2022/04/09 12:19:50;;;;;;;;;;;23.90;33.50;;;;;;4945388;29;19934;-64
2022/04/09 12:22:23;;;;;;;;;;;23.90;33.50;;;;;;4946436;28;19968;-63
2022/04/09 12:24:53;;;;;;;;;;;23.90;33.40;;;;;;4924558;29;20345;-64
2022/04/09 12:27:43;;;;;;;;;;;23.90;33.40;;;;;;4946257;29;20421;-63
2022/04/09 12:30:11;;;;;;;;;;;23.90;33.40;;;;;;4945467;29;19927;-63
2022/04/09 12:32:41;;;;;;;;;;;23.90;33.40;;;;;;4952587;28;20116;-63
2022/04/09 12:35:09;;;;;;;;;;;23.90;33.30;;;;;;4950221;28;20341;-63
2022/04/09 12:37:43;;;;;;;;;;;23.90;33.30;;;;;;4945596;28;20459;-63
2022/04/09 12:40:11;;;;;;;;;;;23.90;33.20;;;;;;4964384;28;20330;-63
2022/04/09 12:42:39;;;;;;;;;;;23.90;33.20;;;;;;4961617;28;19934;-63
2022/04/09 12:45:11;;;;;;;;;;;23.90;33.20;;;;;;4944478;28;19962;-63
2022/04/09 12:47:38;;;;;;;;;;;23.90;33.10;;;;;;4944335;28;19988;-63
2022/04/09 12:50:16;;;;;;;;;;;23.90;33.00;;;;;;4944569;28;19981;-63
2022/04/09 12:52:43;;;;;;;;;;;23.90;33.00;;;;;;4947212;28;19976;-63
2022/04/09 12:55:10;;;;;;;;;;;23.90;33.50;;;;;;4951494;28;20025;-64
2022/04/09 12:57:37;;;;;;;;;;;24.00;32.90;;;;;;4940859;28;19996;-63
2022/04/09 13:00:04;;;;;;;;;;;24.00;32.80;;;;;;4943354;28;20095;-63
2022/04/09 13:02:32;;;;;;;;;;;24.00;32.80;;;;;;4955170;28;19985;-63
2022/04/09 13:04:59;;;;;;;;;;;24.00;32.70;;;;;;4963048;28;19930;-63
2022/04/09 13:07:26;;;;;;;;;;;24.10;32.70;;;;;;4962972;28;19969;-62
2022/04/09 13:09:53;;;;;;;;;;;24.10;32.70;;;;;;4949565;28;20012;-63
2022/04/09 13:12:20;;;;;;;;;;;24.10;32.60;;;;;;4946392;28;20415;-62
2022/04/09 13:14:47;;;;;;;;;;;24.10;32.60;;;;;;4956500;28;19935;-62
2022/04/09 13:17:14;;;;;;;;;;;24.10;32.60;;;;;;4964030;28;19926;-64
2022/04/09 13:19:41;;;;;;;;;;;24.00;32.50;;;;;;4963058;28;19926;-63
2022/04/09 13:22:10;;;;;;;;;;;24.10;32.50;;;;;;4963798;28;20055;-63
2022/04/09 13:24:37;;;;;;;;;;;24.00;32.50;;;;;;4952159;28;19930;-63
2022/04/09 13:27:04;;;;;;;;;;;24.00;32.40;;;;;;4963105;28;20390;-64
2022/04/09 13:29:31;;;;;;;;;;;24.00;32.40;;;;;;4959804;28;19930;-63
2022/04/09 13:31:58;;;;;;;;;;;24.00;32.40;;;;;;4954141;28;20333;-64
2022/04/09 13:34:25;;;;;;;;;;;24.00;32.40;;;;;;4954993;28;19931;-64
2022/04/09 13:36:52;;;;;;;;;;;24.00;32.50;;;;;;4962439;28;19949;-64
2022/04/09 13:39:19;;;;;;;;;;;24.00;32.40;;;;;;4957725;28;19926;-64
2022/04/09 13:42:02;;;;;;;;;;;24.00;32.40;;;;;;4946324;28;19926;-65
2022/04/09 13:44:29;;;;;;;;;;;24.00;32.40;;;;;;4944877;29;20317;-64
2022/04/09 13:46:56;;;;;;;;;;;23.90;32.30;;;;;;4944175;28;19926;-64
2022/04/09 13:49:23;;;;;;;;;;;23.90;32.30;;;;;;4943849;28;20026;-64
2022/04/09 13:51:56;;;;;;;;;;;23.90;32.40;;;;;;4943988;28;19958;-64
2022/04/09 13:54:23;;;;;;;;;;;23.90;32.20;;;;;;4943812;28;19927;-64
2022/04/09 13:56:50;;;;;;;;;;;24.00;32.20;;;;;;4942891;28;20449;-63
2022/04/09 13:59:18;;;;;;;;;;;24.00;32.20;;;;;;4942586;28;20460;-64
2022/04/09 14:01:45;;;;;;;;;;;24.00;32.10;;;;;;4940352;28;19927;-64
2022/04/09 14:04:17;;;;;;;;;;;24.00;32.10;;;;;;4942989;28;19993;-64
2022/04/09 14:06:44;;;;;;;;;;;24.00;32.00;;;;;;4943548;28;19970;-64
2022/04/09 14:09:11;;;;;;;;;;;24.00;32.00;;;;;;4943221;28;19980;-64
2022/04/09 14:11:38;;;;;;;;;;;24.00;32.00;;;;;;4944164;28;20166;-64
2022/04/09 14:14:09;;;;;;;;;;;24.00;31.90;;;;;;4945633;28;19961;-64
2022/04/09 14:16:36;;;;;;;;;;;24.00;31.90;;;;;;4947765;28;20532;-64
2022/04/09 14:19:03;;;;;;;;;;;24.10;31.90;;;;;;4946702;28;19926;-64
2022/04/09 14:21:30;;;;;;;;;;;24.10;31.80;;;;;;4946897;28;19957;-64